עמוד ראשי
METAR-TAF:

METAR-TAF

שדות תעופה :

Bandar-e Mahshahr, איראן

קו רוחב: 30-33-23N, קו אורך: 049-09-07E, גובה: 2מטר

תצפית מזג אוויר נוכחית

הדו"ח נערך לפני 22דקות, בשעה 19:00 UTC
רוח רגועה
טמפרטורת 34 צלסיוס
לחות 36%
לחץ 999 hPa
ראות 10 קילומטר או יותר
ללא עננים שבסיסם נמוך מ 5000 רגל או קומולונימבוס

METAR: OIAM 131900Z 00000KT CAVOK 34/17 Q0999

זמן: 23:52 (19:22 UTC)


TAF: חסר

תצפיות ותחזיות מזג אוויר לגבי יותר מ- 4,000 שדות תעופה ברחבי העולם. דוחות METAR ו- TAF.

התחנות הזמינות מסומנות בנקודות צהובות ואדומות על גבי המפה.

העבר את העכבר לנקודה הצבעונית על מנת לראות את שם התחנה.

לאחר מכן, לחץ כדי לראות את תוכן ואת תחזיות מזג האוויר.

כדי לשנות את המפה: לחץ על הכפתורים הירוקים עם הפלוס השחור כדי להתקרב; על הכפתור הירוק עם המקף כדי להתרחק; או בחיצים הירוקים למפות סמוכות.


METAR-TAF: